createdAt,value
2022-12-24T00:01:38.054Z,99196.08
2022-12-24T00:04:06.621Z,99198.98
2022-12-24T00:06:35.098Z,99203.04
2022-12-24T00:09:04.134Z,99207.58
2022-12-24T00:11:32.422Z,99204.67
2022-12-24T00:14:00.819Z,99202.45
2022-12-24T00:16:29.306Z,99201.81
2022-12-24T00:18:57.819Z,99205.27
2022-12-24T00:21:26.300Z,99204.23
2022-12-24T00:23:54.811Z,99204.09
2022-12-24T00:26:23.104Z,99203.95
2022-12-24T00:28:51.491Z,99205.58
2022-12-24T00:31:19.963Z,99206.54
2022-12-24T00:33:48.796Z,99206.65
2022-12-24T00:36:17.653Z,99206.73
2022-12-24T00:38:46.672Z,99211.48
2022-12-24T00:41:25.474Z,99211.76
2022-12-24T00:44:06.517Z,99210.56
2022-12-24T00:46:35.851Z,99213.86
2022-12-24T00:49:05.742Z,99211.98
2022-12-24T00:51:36.089Z,99213.42
2022-12-24T00:54:04.967Z,99213.09
2022-12-24T00:56:34.087Z,99217.70
2022-12-24T00:59:02.638Z,99215.97
2022-12-24T01:01:31.282Z,99217.45
2022-12-24T01:04:18.584Z,99220.80
2022-12-24T01:06:47.018Z,99223.67
2022-12-24T01:09:15.519Z,99221.34
2022-12-24T01:11:43.934Z,99220.97
2022-12-24T01:14:12.325Z,99216.89
2022-12-24T01:16:40.675Z,99218.46
2022-12-24T01:19:09.415Z,99215.85
2022-12-24T01:21:37.821Z,99214.13
2022-12-24T01:24:06.709Z,99212.00
2022-12-24T01:26:35.025Z,99205.82
2022-12-24T01:29:03.449Z,99205.14
2022-12-24T01:31:31.894Z,99204.66
2022-12-24T01:34:00.423Z,99206.17
2022-12-24T01:36:28.979Z,99208.11
2022-12-24T01:38:57.350Z,99203.68
2022-12-24T01:41:45.315Z,99200.35
2022-12-24T01:44:35.811Z,99200.46
2022-12-24T01:47:16.989Z,99198.60
2022-12-24T01:49:51.441Z,99202.27
2022-12-24T01:52:31.074Z,99202.02
2022-12-24T01:55:08.370Z,99202.76
2022-12-24T01:58:03.920Z,99200.98
2022-12-24T02:00:32.336Z,99202.33
2022-12-24T02:03:00.911Z,99203.48
2022-12-24T02:05:37.244Z,99203.58
2022-12-24T02:08:06.601Z,99202.11
2022-12-24T02:10:34.998Z,99201.95
2022-12-24T02:13:04.549Z,99198.98
2022-12-24T02:19:29.330Z,99200.89
2022-12-24T02:23:08.049Z,99198.88
2022-12-24T02:25:44.142Z,99198.52
2022-12-24T02:28:25.985Z,99198.43
2022-12-24T02:31:10.969Z,99196.27
2022-12-24T02:33:49.091Z,99189.33
2022-12-24T02:36:30.069Z,99189.33
2022-12-24T02:39:18.334Z,99188.00
2022-12-24T02:42:08.522Z,99187.03
2022-12-24T02:45:08.082Z,99182.61
2022-12-24T02:47:38.362Z,99188.84
2022-12-24T02:50:08.963Z,99193.85
2022-12-24T02:52:43.548Z,99194.39
2022-12-24T02:55:40.333Z,99197.68
2022-12-24T02:58:14.715Z,99198.20
2022-12-24T03:01:16.655Z,99200.98
2022-12-24T03:04:01.127Z,99204.98
2022-12-24T03:06:57.364Z,99205.70
2022-12-24T03:09:39.204Z,99206.39
2022-12-24T03:12:24.934Z,99207.09
2022-12-24T03:14:53.794Z,99208.83
2022-12-24T03:17:22.537Z,99209.74
2022-12-24T03:19:51.790Z,99211.29
2022-12-24T03:22:22.767Z,99211.14
2022-12-24T03:24:51.279Z,99213.36
2022-12-24T03:27:20.556Z,99211.11
2022-12-24T03:29:48.832Z,99210.59
2022-12-24T03:32:31.195Z,99211.76
2022-12-24T03:35:01.146Z,99217.22
2022-12-24T03:37:29.741Z,99221.52
2022-12-24T03:39:58.153Z,99219.77
2022-12-24T03:42:30.824Z,99225.77
2022-12-24T03:44:59.170Z,99227.15
2022-12-24T03:47:27.515Z,99225.90
2022-12-24T03:49:55.870Z,99230.86
2022-12-24T03:52:24.868Z,99226.69
2022-12-24T03:54:53.261Z,99231.86
2022-12-24T03:57:21.771Z,99229.65
2022-12-24T03:59:50.295Z,99227.79
2022-12-24T04:02:19.309Z,99230.20
2022-12-24T04:04:47.956Z,99227.95
2022-12-24T04:07:16.516Z,99227.48
2022-12-24T04:09:44.828Z,99227.31
2022-12-24T04:12:13.230Z,99229.58
2022-12-24T04:14:41.646Z,99228.27
2022-12-24T04:17:10.059Z,99233.77
2022-12-24T04:19:38.930Z,99236.67
2022-12-24T04:22:07.257Z,99236.56
2022-12-24T04:24:35.654Z,99239.69
2022-12-24T04:27:04.040Z,99239.67
2022-12-24T04:29:32.430Z,99239.36
2022-12-24T04:32:00.831Z,99240.26
2022-12-24T04:34:29.230Z,99241.65
2022-12-24T04:36:57.631Z,99245.96
2022-12-24T04:39:25.993Z,99250.14
2022-12-24T04:41:54.317Z,99251.85
2022-12-24T04:44:22.714Z,99252.52
2022-12-24T04:46:51.255Z,99261.05
2022-12-24T04:49:19.672Z,99263.42
2022-12-24T04:51:47.957Z,99266.78
2022-12-24T04:54:17.607Z,99266.54
2022-12-24T04:56:45.986Z,99269.02
2022-12-24T04:59:14.312Z,99270.43
2022-12-24T05:01:42.804Z,99268.17
2022-12-24T05:04:11.551Z,99269.82
2022-12-24T05:06:40.095Z,99268.85
2022-12-24T05:09:08.449Z,99270.90
2022-12-24T05:11:36.888Z,99271.60
2022-12-24T05:14:05.178Z,99272.87
2022-12-24T05:16:33.615Z,99275.02
2022-12-24T05:19:02.092Z,99283.16
2022-12-24T05:21:30.559Z,99282.73
2022-12-24T05:24:17.310Z,99284.30
2022-12-24T05:26:50.377Z,99287.95
2022-12-24T05:29:19.350Z,99285.92
2022-12-24T05:31:48.113Z,99287.49
2022-12-24T05:34:17.716Z,99290.27
2022-12-24T05:36:46.168Z,99286.35
2022-12-24T05:39:18.891Z,99295.02
2022-12-24T05:41:48.056Z,99300.23
2022-12-24T05:44:16.677Z,99302.55
2022-12-24T05:46:45.908Z,99305.33
2022-12-24T05:49:15.244Z,99311.86
2022-12-24T05:51:43.816Z,99311.89
2022-12-24T05:54:12.257Z,99313.33
2022-12-24T05:56:40.653Z,99315.41
2022-12-24T05:59:09.346Z,99319.14
2022-12-24T06:01:37.760Z,99326.41
2022-12-24T06:04:06.431Z,99333.14
2022-12-24T06:06:35.026Z,99337.95
2022-12-24T06:09:03.704Z,99343.86
2022-12-24T06:11:32.109Z,99351.04
2022-12-24T06:14:00.507Z,99353.27
2022-12-24T06:16:29.150Z,99362.65
2022-12-24T06:18:57.551Z,99362.23
2022-12-24T06:21:26.206Z,99364.46
2022-12-24T06:23:54.559Z,99367.58
2022-12-24T06:26:23.770Z,99371.55
2022-12-24T06:28:52.599Z,99376.04
2022-12-24T06:31:23.482Z,99377.34
2022-12-24T06:33:53.184Z,99375.88
2022-12-24T06:36:26.380Z,99376.39
2022-12-24T06:38:55.622Z,99380.19
2022-12-24T06:41:24.625Z,99386.65
2022-12-24T06:43:54.188Z,99391.52
2022-12-24T06:46:23.289Z,99399.59
2022-12-24T06:48:52.224Z,99397.48
2022-12-24T06:51:20.799Z,99396.29
2022-12-24T06:53:53.454Z,99395.47
2022-12-24T06:56:22.501Z,99395.16
2022-12-24T06:58:51.093Z,99401.90
2022-12-24T07:01:21.312Z,99402.95
2022-12-24T07:03:50.621Z,99408.55
2022-12-24T07:06:24.267Z,99414.70
2022-12-24T07:08:53.515Z,99419.81
2022-12-24T07:11:23.605Z,99424.58
2022-12-24T07:13:52.062Z,99431.60
2022-12-24T07:16:20.628Z,99436.99
2022-12-24T07:18:49.256Z,99447.54
2022-12-24T07:21:17.734Z,99450.64
2022-12-24T07:23:46.133Z,99455.97
2022-12-24T07:26:14.546Z,99463.73
2022-12-24T07:28:42.905Z,99469.93
2022-12-24T07:31:11.444Z,99472.89
2022-12-24T07:33:39.816Z,99479.21
2022-12-24T07:36:13.827Z,99483.54
2022-12-24T07:38:42.060Z,99490.67
2022-12-24T07:41:11.153Z,99489.98
2022-12-24T07:43:40.124Z,99489.46
2022-12-24T07:46:08.780Z,99484.98
2022-12-24T07:48:37.289Z,99486.14
2022-12-24T07:51:05.894Z,99492.32
2022-12-24T07:53:34.306Z,99500.89
2022-12-24T07:56:06.163Z,99503.14
2022-12-24T07:58:37.432Z,99504.73
2022-12-24T08:01:06.504Z,99504.55
2022-12-24T08:03:35.608Z,99507.84
2022-12-24T08:06:04.340Z,99511.27
2022-12-24T08:08:32.655Z,99518.67
2022-12-24T08:11:03.441Z,99521.92
2022-12-24T08:13:32.339Z,99525.10
2022-12-24T08:16:00.806Z,99528.01
2022-12-24T08:18:29.293Z,99534.89
2022-12-24T08:20:57.680Z,99537.35
2022-12-24T08:23:26.246Z,99540.80
2022-12-24T08:25:54.700Z,99549.38
2022-12-24T08:28:23.256Z,99552.45
2022-12-24T08:30:52.724Z,99555.84
2022-12-24T08:33:22.404Z,99560.45
2022-12-24T08:35:53.331Z,99560.04
2022-12-24T08:38:23.409Z,99560.81
2022-12-24T08:43:51.615Z,99570.98
2022-12-24T08:46:20.357Z,99573.45
2022-12-24T08:48:49.001Z,99578.74
2022-12-24T08:51:19.501Z,99583.09
2022-12-24T08:53:47.970Z,99586.75
2022-12-24T08:56:16.417Z,99590.48
2022-12-24T08:58:45.203Z,99594.38
2022-12-24T09:01:16.341Z,99597.75
2022-12-24T09:03:46.679Z,99599.20
2022-12-24T09:06:16.275Z,99600.51
2022-12-24T09:08:44.899Z,99601.30
2022-12-24T09:11:17.219Z,99604.96
2022-12-24T09:13:45.609Z,99611.31
2022-12-24T09:16:14.105Z,99617.15
2022-12-24T09:18:43.311Z,99620.44
2022-12-24T09:21:14.900Z,99621.60
2022-12-24T09:23:45.734Z,99626.96
2022-12-24T09:26:27.796Z,99630.81
2022-12-24T09:28:58.460Z,99633.64
2022-12-24T09:31:27.673Z,99634.30
2022-12-24T09:33:56.175Z,99634.96
2022-12-24T09:36:24.702Z,99638.46
2022-12-24T09:38:53.150Z,99640.45
2022-12-24T09:41:31.501Z,99640.77
2022-12-24T09:44:25.665Z,99644.00
2022-12-24T09:46:55.571Z,99650.98
2022-12-24T09:49:39.358Z,99653.64
2022-12-24T09:52:12.800Z,99656.16
2022-12-24T09:54:50.500Z,99652.81
2022-12-24T09:57:29.849Z,99654.55
2022-12-24T09:59:58.316Z,99657.66
2022-12-24T10:02:27.098Z,99660.58
2022-12-24T10:04:55.969Z,99660.95
2022-12-24T10:08:01.300Z,99663.22
2022-12-24T10:10:51.672Z,99668.86
2022-12-24T10:13:22.591Z,99677.02
2022-12-24T10:16:01.157Z,99681.11
2022-12-24T10:18:56.914Z,99686.23
2022-12-24T10:21:27.923Z,99696.71
2022-12-24T10:24:07.185Z,99700.69
2022-12-24T10:26:45.444Z,99704.16
2022-12-24T10:29:39.580Z,99708.62
2022-12-24T10:32:07.913Z,99712.20
2022-12-24T10:34:51.939Z,99718.97
2022-12-24T10:37:25.263Z,99717.57
2022-12-24T10:39:53.801Z,99721.69
2022-12-24T10:42:25.690Z,99726.13
2022-12-24T10:45:03.739Z,99729.17
2022-12-24T10:47:35.573Z,99729.73
2022-12-24T10:50:17.405Z,99729.23
2022-12-24T10:52:47.541Z,99729.13
2022-12-24T10:55:18.833Z,99725.95
2022-12-24T10:58:04.544Z,99732.22
2022-12-24T11:00:36.446Z,99738.63
2022-12-24T11:03:08.603Z,99736.92
2022-12-24T11:05:39.074Z,99737.33
2022-12-24T11:08:17.558Z,99737.95
2022-12-24T11:10:57.171Z,99738.58
2022-12-24T11:13:37.565Z,99742.42
2022-12-24T11:16:13.764Z,99749.67
2022-12-24T11:18:51.636Z,99753.41
2022-12-24T11:21:25.271Z,99754.35
2022-12-24T11:24:14.540Z,99758.52
2022-12-24T11:26:44.490Z,99766.23
2022-12-24T11:29:27.332Z,99770.09
2022-12-24T11:32:19.423Z,99773.40
2022-12-24T11:34:48.391Z,99775.13
2022-12-24T11:37:19.236Z,99773.89
2022-12-24T11:39:53.674Z,99771.65
2022-12-24T11:42:37.230Z,99768.83
2022-12-24T11:45:35.812Z,99767.00
2022-12-24T11:48:28.561Z,99773.48
2022-12-24T11:51:02.442Z,99777.52
2022-12-24T11:54:04.875Z,99781.83
2022-12-24T11:56:56.062Z,99790.46
2022-12-24T11:59:32.415Z,99795.08
2022-12-24T12:02:29.238Z,99796.69
2022-12-24T12:05:11.736Z,99799.89
2022-12-24T12:07:40.913Z,99808.02
2022-12-24T12:10:20.798Z,99812.42
2022-12-24T12:13:15.309Z,99811.80
2022-12-24T12:16:10.649Z,99815.66
2022-12-24T12:18:40.071Z,99824.73
2022-12-24T12:21:15.204Z,99829.84
2022-12-24T12:23:54.547Z,99828.00
2022-12-24T12:26:25.004Z,99826.68
2022-12-24T12:29:15.150Z,99831.35
2022-12-24T12:31:49.461Z,99833.48
2022-12-24T12:34:25.652Z,99832.86
2022-12-24T12:37:00.662Z,99834.60
2022-12-24T12:39:31.868Z,99833.36
2022-12-24T12:42:06.125Z,99833.50
2022-12-24T12:44:49.576Z,99836.27
2022-12-24T12:47:27.834Z,99837.17
2022-12-24T12:49:58.732Z,99841.23
2022-12-24T12:52:45.787Z,99844.79
2022-12-24T12:55:24.308Z,99851.31
2022-12-24T12:58:00.201Z,99851.83
2022-12-24T13:00:35.101Z,99854.34
2022-12-24T13:03:41.470Z,99855.12
2022-12-24T13:06:47.827Z,99861.02
2022-12-24T13:09:16.175Z,99861.73
2022-12-24T13:12:02.712Z,99860.66
2022-12-24T13:15:05.923Z,99865.20
2022-12-24T13:17:54.494Z,99877.35
2022-12-24T13:20:26.362Z,99885.44
2022-12-24T13:23:18.233Z,99885.98
2022-12-24T13:25:55.576Z,99890.80
2022-12-24T13:28:23.943Z,99892.38
2022-12-24T13:31:13.622Z,99890.02
2022-12-24T13:33:41.996Z,99887.75
2022-12-24T13:36:21.674Z,99887.29
2022-12-24T13:39:00.433Z,99894.55
2022-12-24T13:41:42.127Z,99898.61
2022-12-24T13:44:13.749Z,99905.55
2022-12-24T13:46:59.128Z,99911.23
2022-12-24T13:49:30.833Z,99917.73
2022-12-24T13:52:12.910Z,99919.52
2022-12-24T13:55:06.007Z,99918.81
2022-12-24T13:57:48.590Z,99917.27
2022-12-24T14:00:26.990Z,99917.38
2022-12-24T14:03:28.715Z,99924.81
2022-12-24T14:06:14.110Z,99926.40
2022-12-24T14:08:45.763Z,99929.69
2022-12-24T14:11:23.477Z,99929.25
2022-12-24T14:13:54.874Z,99929.98
2022-12-24T14:16:30.572Z,99932.31
2022-12-24T14:18:59.402Z,99932.54
2022-12-24T14:21:35.350Z,99936.77
2022-12-24T14:24:38.212Z,99938.09
2022-12-24T14:27:20.695Z,99942.70
2022-12-24T14:30:00.819Z,99942.38
2022-12-24T14:32:40.014Z,99944.95
2022-12-24T14:35:10.032Z,99952.83
2022-12-24T14:37:40.135Z,99952.05
2022-12-24T14:40:15.470Z,99952.47
2022-12-24T14:43:12.485Z,99958.69
2022-12-24T14:45:48.008Z,99960.94
2022-12-24T14:48:27.563Z,99961.73
2022-12-24T14:51:20.738Z,99970.90
2022-12-24T14:54:14.099Z,99974.11
2022-12-24T14:56:42.915Z,99977.29
2022-12-24T14:59:20.043Z,99983.53
2022-12-24T15:01:48.420Z,99987.73
2022-12-24T15:04:18.573Z,99996.26
2022-12-24T15:06:53.730Z,99999.99
2022-12-24T15:09:25.041Z,100001.09
2022-12-24T15:11:57.481Z,99999.05
2022-12-24T15:14:28.484Z,99997.67
2022-12-24T15:16:58.040Z,99995.22
2022-12-24T15:19:43.027Z,100001.38
2022-12-24T15:22:22.846Z,100002.80
2022-12-24T15:24:51.963Z,100004.42
2022-12-24T15:27:27.697Z,100012.52
2022-12-24T15:29:59.514Z,100014.27
2022-12-24T15:32:27.949Z,100020.83
2022-12-24T15:34:56.467Z,100026.34
2022-12-24T15:37:31.526Z,100026.96
2022-12-24T15:40:08.193Z,100024.77
2022-12-24T15:42:42.349Z,100027.21
2022-12-24T15:45:31.086Z,100026.38
2022-12-24T15:48:06.803Z,100031.44
2022-12-24T15:50:38.507Z,100032.51
2022-12-24T15:53:41.720Z,100037.71
2022-12-24T15:56:31.873Z,100039.78
2022-12-24T15:59:36.438Z,100046.41
2022-12-24T16:02:32.676Z,100051.47
2022-12-24T16:05:33.921Z,100055.08
2022-12-24T16:08:20.059Z,100059.64
2022-12-24T16:11:13.287Z,100064.71
2022-12-24T16:13:51.036Z,100070.50
2022-12-24T16:16:21.720Z,100070.39
2022-12-24T16:18:57.328Z,100071.82
2022-12-24T16:21:34.436Z,100075.52
2022-12-24T16:24:25.087Z,100079.11
2022-12-24T16:26:54.144Z,100088.90
2022-12-24T16:29:27.781Z,100089.66
2022-12-24T16:31:58.277Z,100086.65
2022-12-24T16:34:30.732Z,100092.54
2022-12-24T16:37:00.487Z,100099.01
2022-12-24T16:39:33.540Z,100096.77
2022-12-24T16:42:22.989Z,100099.64
2022-12-24T16:44:54.004Z,100101.23
2022-12-24T16:47:26.354Z,100102.91
2022-12-24T16:49:54.908Z,100110.59
2022-12-24T16:52:29.442Z,100105.96
2022-12-24T16:54:57.922Z,100107.23
2022-12-24T16:57:27.291Z,100108.44
2022-12-24T16:59:56.142Z,100110.97
2022-12-24T17:02:25.750Z,100107.52
2022-12-24T17:04:55.404Z,100101.20
2022-12-24T17:07:23.950Z,100097.23
2022-12-24T17:09:52.416Z,100098.69
2022-12-24T17:12:21.929Z,100105.81
2022-12-24T17:14:50.578Z,100109.06
2022-12-24T17:17:28.394Z,100111.11
2022-12-24T17:19:57.945Z,100116.74
2022-12-24T17:22:29.999Z,100123.02
2022-12-24T17:24:58.533Z,100127.04
2022-12-24T17:27:26.908Z,100136.63
2022-12-24T17:29:56.224Z,100144.27
2022-12-24T17:32:27.810Z,100149.84
2022-12-24T17:34:56.517Z,100145.54
2022-12-24T17:37:25.141Z,100145.96
2022-12-24T17:39:53.671Z,100144.34
2022-12-24T17:42:22.407Z,100143.61
2022-12-24T17:44:50.819Z,100146.52
2022-12-24T17:47:19.275Z,100143.56
2022-12-24T17:49:47.618Z,100146.21
2022-12-24T17:52:16.200Z,100150.48
2022-12-24T17:54:44.792Z,100155.55
2022-12-24T17:57:13.377Z,100151.80
2022-12-24T17:59:41.882Z,100147.88
2022-12-24T18:02:13.388Z,100139.81
2022-12-24T18:04:42.034Z,100140.74
2022-12-24T18:07:10.824Z,100145.59
2022-12-24T18:09:39.660Z,100151.65
2022-12-24T18:12:08.210Z,100163.17
2022-12-24T18:14:36.755Z,100166.98
2022-12-24T18:17:05.117Z,100168.01
2022-12-24T18:19:33.641Z,100167.85
2022-12-24T18:22:02.003Z,100169.90
2022-12-24T18:24:30.401Z,100173.66
2022-12-24T18:26:58.901Z,100179.10
2022-12-24T18:29:27.499Z,100185.55
2022-12-24T18:31:55.946Z,100185.52
2022-12-24T18:34:24.794Z,100188.23
2022-12-24T18:36:55.391Z,100183.02
2022-12-24T18:39:24.231Z,100187.62
2022-12-24T18:41:52.887Z,100185.90
2022-12-24T18:44:25.343Z,100191.44
2022-12-24T18:46:54.447Z,100195.85
2022-12-24T18:49:23.128Z,100194.64
2022-12-24T18:51:51.490Z,100194.83
2022-12-24T18:54:19.773Z,100199.66
2022-12-24T18:56:52.428Z,100208.80
2022-12-24T18:59:20.962Z,100209.65
2022-12-24T19:01:49.590Z,100209.79
2022-12-24T19:04:18.329Z,100209.77
2022-12-24T19:06:52.714Z,100211.90
2022-12-24T19:09:23.111Z,100206.05
2022-12-24T19:11:51.624Z,100211.91
2022-12-24T19:14:22.940Z,100215.36
2022-12-24T19:16:51.639Z,100221.02
2022-12-24T19:19:24.305Z,100222.55
2022-12-24T19:21:52.849Z,100220.36
2022-12-24T19:24:21.224Z,100221.29
2022-12-24T19:26:49.645Z,100232.83
2022-12-24T19:29:18.173Z,100234.02
2022-12-24T19:31:47.794Z,100235.76
2022-12-24T19:34:16.621Z,100231.51
2022-12-24T19:36:44.945Z,100237.39
2022-12-24T19:39:13.666Z,100239.98
2022-12-24T19:41:42.438Z,100236.92
2022-12-24T19:44:12.200Z,100233.67
2022-12-24T19:46:40.773Z,100236.77
2022-12-24T19:49:11.787Z,100227.69
2022-12-24T19:51:40.349Z,100222.24
2022-12-24T19:54:16.676Z,100230.13
2022-12-24T19:56:47.380Z,100235.27
2022-12-24T19:59:15.900Z,100246.21
2022-12-24T20:01:45.077Z,100255.59
2022-12-24T20:04:14.595Z,100259.98
2022-12-24T20:06:43.008Z,100260.27
2022-12-24T20:09:13.255Z,100259.27
2022-12-24T20:11:41.627Z,100257.89
2022-12-24T20:14:11.922Z,100263.68
2022-12-24T20:16:40.558Z,100256.86
2022-12-24T20:19:13.894Z,100254.50
2022-12-24T20:21:42.275Z,100256.02
2022-12-24T20:24:10.925Z,100260.48
2022-12-24T20:26:39.791Z,100268.34
2022-12-24T20:29:10.043Z,100273.91
2022-12-24T20:31:39.334Z,100287.30
2022-12-24T20:34:08.947Z,100297.48
2022-12-24T20:36:38.324Z,100300.13
2022-12-24T20:39:07.263Z,100299.83
2022-12-24T20:41:36.724Z,100294.89
2022-12-24T20:44:05.294Z,100291.30
2022-12-24T20:46:35.710Z,100289.63
2022-12-24T20:49:04.277Z,100287.55
2022-12-24T20:51:32.923Z,100286.73
2022-12-24T20:54:02.242Z,100285.42
2022-12-24T20:56:31.929Z,100283.98
2022-12-24T20:59:02.107Z,100280.42
2022-12-24T21:01:31.323Z,100285.84
2022-12-24T21:04:05.124Z,100292.34
2022-12-24T21:06:35.755Z,100294.04
2022-12-24T21:09:06.595Z,100293.04
2022-12-24T21:11:49.975Z,100295.77
2022-12-24T21:14:21.963Z,100296.08
2022-12-24T21:16:51.711Z,100288.15
2022-12-24T21:19:23.420Z,100285.64
2022-12-24T21:21:52.205Z,100287.73
2022-12-24T21:24:20.696Z,100294.56
2022-12-24T21:26:49.104Z,100288.11
2022-12-24T21:29:17.434Z,100293.88
2022-12-24T21:31:46.394Z,100290.59
2022-12-24T21:34:14.886Z,100283.67
2022-12-24T21:36:43.272Z,100281.73
2022-12-24T21:39:11.833Z,100279.58
2022-12-24T21:41:40.302Z,100277.64
2022-12-24T21:44:08.615Z,100282.31
2022-12-24T21:46:37.064Z,100284.75
2022-12-24T21:49:24.199Z,100289.52
2022-12-24T21:51:52.753Z,100291.17
2022-12-24T21:54:24.164Z,100289.91
2022-12-24T21:57:14.359Z,100290.58
2022-12-24T21:59:43.030Z,100287.30
2022-12-24T22:02:14.993Z,100285.55
2022-12-24T22:04:44.152Z,100282.45
2022-12-24T22:07:51.497Z,100284.91
2022-12-24T22:10:38.360Z,100295.69
2022-12-24T22:13:09.007Z,100293.71
2022-12-24T22:15:50.290Z,100294.94
2022-12-24T22:18:21.036Z,100287.68
2022-12-24T22:20:50.385Z,100293.44
2022-12-24T22:23:20.001Z,100293.63
2022-12-24T22:25:48.350Z,100304.13
2022-12-24T22:28:16.702Z,100312.19
2022-12-24T22:30:45.107Z,100315.23
2022-12-24T22:33:13.397Z,100312.44
2022-12-24T22:35:42.176Z,100316.00
2022-12-24T22:38:11.111Z,100321.05
2022-12-24T22:40:40.458Z,100327.47
2022-12-24T22:43:08.974Z,100330.47
2022-12-24T22:45:39.699Z,100333.52
2022-12-24T22:48:08.212Z,100334.48
2022-12-24T22:50:41.219Z,100338.09
2022-12-24T22:53:09.703Z,100339.63
2022-12-24T22:55:38.163Z,100344.04
2022-12-24T22:58:07.141Z,100350.65
2022-12-24T23:00:40.413Z,100353.48
2022-12-24T23:03:09.917Z,100353.70
2022-12-24T23:05:42.704Z,100353.05
2022-12-24T23:08:12.205Z,100355.14
2022-12-24T23:10:40.954Z,100352.64
2022-12-24T23:13:31.682Z,100359.10
2022-12-24T23:16:05.252Z,100360.77
2022-12-24T23:18:33.966Z,100366.45
2022-12-24T23:21:06.320Z,100373.48
2022-12-24T23:23:37.075Z,100378.83
2022-12-24T23:26:12.126Z,100381.21
2022-12-24T23:28:41.345Z,100383.59
2022-12-24T23:31:11.199Z,100388.73
2022-12-24T23:33:39.887Z,100390.22
2022-12-24T23:36:09.112Z,100391.70
2022-12-24T23:38:37.459Z,100399.04
2022-12-24T23:41:07.693Z,100403.45
2022-12-24T23:43:36.995Z,100405.10
2022-12-24T23:46:05.705Z,100412.77
2022-12-24T23:48:34.209Z,100409.96
2022-12-24T23:51:12.062Z,100409.44
2022-12-24T23:53:40.770Z,100406.88
2022-12-24T23:56:11.931Z,100400.36
2022-12-24T23:58:41.440Z,100401.45
